createdAt,value
2022-11-18T00:02:11.202Z,97.10
2022-11-18T00:04:41.202Z,97.10
2022-11-18T00:07:11.137Z,97.20
2022-11-18T00:09:41.235Z,97.30
2022-11-18T00:12:30.730Z,97.30
2022-11-18T00:15:01.088Z,97.30
2022-11-18T00:17:30.915Z,97.40
2022-11-18T00:20:00.882Z,97.30
2022-11-18T00:22:30.846Z,97.40
2022-11-18T00:25:00.756Z,97.40
2022-11-18T00:27:33.846Z,97.50
2022-11-18T00:30:04.329Z,97.50
2022-11-18T00:32:37.422Z,97.50
2022-11-18T00:35:07.374Z,97.60
2022-11-18T00:37:37.126Z,97.60
2022-11-18T00:40:07.134Z,97.60
2022-11-18T00:42:56.476Z,97.70
2022-11-18T00:45:26.510Z,97.70
2022-11-18T00:47:56.118Z,97.70
2022-11-18T00:50:26.470Z,97.70
2022-11-18T00:52:56.019Z,97.80
2022-11-18T00:55:25.671Z,97.70
2022-11-18T00:57:56.303Z,97.70
2022-11-18T01:00:25.953Z,97.70
2022-11-18T01:02:55.559Z,97.70
2022-11-18T01:05:25.282Z,97.70
2022-11-18T01:07:54.892Z,97.70
2022-11-18T01:10:24.501Z,97.70
2022-11-18T01:13:13.711Z,97.80
2022-11-18T01:15:46.162Z,97.70
2022-11-18T01:18:16.165Z,97.70
2022-11-18T01:20:46.383Z,97.70
2022-11-18T01:23:16.787Z,98.00
2022-11-18T01:25:47.956Z,97.60
2022-11-18T01:28:23.208Z,97.50
2022-11-18T01:30:53.544Z,97.40
2022-11-18T01:33:23.458Z,97.30
2022-11-18T01:35:53.646Z,97.20
2022-11-18T01:38:23.554Z,97.10
2022-11-18T01:40:53.497Z,97.00
2022-11-18T01:43:24.737Z,96.90
2022-11-18T01:45:58.367Z,96.80
2022-11-18T01:48:36.838Z,96.80
2022-11-18T01:51:12.633Z,96.70
2022-11-18T01:53:50.857Z,96.70
2022-11-18T01:56:25.659Z,96.70
2022-11-18T01:59:10.232Z,96.60
2022-11-18T02:01:40.637Z,96.60
2022-11-18T02:04:13.633Z,96.50
2022-11-18T02:06:48.083Z,96.40
2022-11-18T02:09:19.221Z,96.30
2022-11-18T02:11:55.326Z,96.30
2022-11-18T02:14:33.700Z,96.30
2022-11-18T02:17:34.485Z,96.20
2022-11-18T02:20:35.262Z,96.10
2022-11-18T02:23:43.950Z,96.10
2022-11-18T02:26:51.031Z,95.90
2022-11-18T02:29:35.740Z,95.80
2022-11-18T02:32:14.164Z,95.60
2022-11-18T02:34:53.984Z,95.50
2022-11-18T02:37:37.347Z,95.30
2022-11-18T02:40:33.751Z,95.10
2022-11-18T02:43:26.359Z,95.00
2022-11-18T02:46:00.592Z,94.80
2022-11-18T02:48:33.623Z,94.70
2022-11-18T02:51:06.110Z,94.60
2022-11-18T02:53:37.678Z,94.50
2022-11-18T02:56:09.032Z,94.40
2022-11-18T02:58:38.968Z,94.30
2022-11-18T03:01:09.023Z,94.20
2022-11-18T03:03:39.613Z,94.10
2022-11-18T03:06:31.252Z,94.00
2022-11-18T03:09:31.997Z,93.80
2022-11-18T03:12:27.911Z,93.30
2022-11-18T03:15:36.946Z,93.20
2022-11-18T03:18:32.746Z,93.00
2022-11-18T03:21:12.448Z,93.00
2022-11-18T03:24:01.724Z,93.20
2022-11-18T03:26:39.662Z,92.90
2022-11-18T03:29:20.970Z,92.90
2022-11-18T03:31:56.773Z,92.70
2022-11-18T03:34:36.411Z,92.80
2022-11-18T03:37:10.715Z,92.90
2022-11-18T03:39:45.980Z,92.90
2022-11-18T03:42:31.680Z,92.50
2022-11-18T03:45:09.030Z,92.10
2022-11-18T03:47:44.049Z,92.10
2022-11-18T03:50:31.687Z,92.00
2022-11-18T03:53:03.900Z,91.90
2022-11-18T03:55:39.313Z,91.30
2022-11-18T03:58:27.492Z,91.20
2022-11-18T04:01:03.981Z,91.00
2022-11-18T04:03:34.051Z,91.00
2022-11-18T04:06:30.827Z,91.10
2022-11-18T04:09:06.242Z,91.10
2022-11-18T04:12:01.611Z,91.20
2022-11-18T04:14:37.032Z,91.30
2022-11-18T04:17:22.815Z,91.40
2022-11-18T04:19:52.934Z,91.30
2022-11-18T04:22:23.183Z,91.30
2022-11-18T04:24:53.045Z,91.30
2022-11-18T04:27:22.955Z,91.30
2022-11-18T04:29:52.873Z,91.30
2022-11-18T04:32:23.561Z,91.20
2022-11-18T04:34:53.212Z,91.00
2022-11-18T04:37:23.032Z,90.80
2022-11-18T04:39:53.511Z,90.40
2022-11-18T04:42:23.133Z,89.70
2022-11-18T04:44:52.698Z,89.10
2022-11-18T04:47:22.349Z,88.80
2022-11-18T04:49:51.967Z,88.30
2022-11-18T04:52:21.912Z,87.70
2022-11-18T04:54:51.671Z,87.80
2022-11-18T04:57:21.205Z,87.90
2022-11-18T04:59:51.046Z,87.70
2022-11-18T05:02:20.630Z,87.70
2022-11-18T05:04:50.586Z,87.40
2022-11-18T05:07:20.440Z,86.10
2022-11-18T05:09:50.030Z,86.30
2022-11-18T05:12:39.242Z,83.70
2022-11-18T05:15:09.324Z,83.60
2022-11-18T05:17:38.948Z,83.50
2022-11-18T05:20:09.088Z,83.90
2022-11-18T05:22:38.716Z,83.80
2022-11-18T05:25:08.756Z,83.90
2022-11-18T05:27:38.392Z,83.90
2022-11-18T05:30:09.154Z,83.30
2022-11-18T05:32:38.719Z,82.70
2022-11-18T05:35:08.729Z,82.40
2022-11-18T05:37:38.282Z,82.50
2022-11-18T05:40:08.599Z,82.70
2022-11-18T05:42:57.840Z,82.50
2022-11-18T05:45:27.408Z,82.30
2022-11-18T05:48:03.055Z,82.30
2022-11-18T05:50:34.333Z,82.30
2022-11-18T05:53:04.712Z,82.30
2022-11-18T05:55:49.945Z,82.20
2022-11-18T05:58:19.631Z,82.00
2022-11-18T06:00:52.922Z,82.00
2022-11-18T06:03:30.965Z,81.80
2022-11-18T06:06:04.427Z,81.40
2022-11-18T06:08:42.249Z,80.80
2022-11-18T06:11:14.469Z,80.60
2022-11-18T06:14:04.201Z,79.60
2022-11-18T06:16:40.704Z,79.60
2022-11-18T06:19:11.023Z,79.60
2022-11-18T06:21:40.930Z,79.60
2022-11-18T06:24:11.670Z,79.80
2022-11-18T06:26:42.531Z,79.70
2022-11-18T06:29:16.172Z,79.70
2022-11-18T06:31:47.018Z,79.60
2022-11-18T06:34:16.622Z,79.10
2022-11-18T06:36:46.203Z,78.90
2022-11-18T06:39:15.945Z,78.80
2022-11-18T06:41:45.789Z,78.50
2022-11-18T06:44:15.673Z,78.50
2022-11-18T06:47:04.898Z,78.30
2022-11-18T06:49:34.624Z,78.40
2022-11-18T06:52:04.282Z,77.60
2022-11-18T06:54:33.951Z,76.50
2022-11-18T06:57:03.551Z,75.80
2022-11-18T06:59:33.141Z,75.70
2022-11-18T07:02:02.733Z,75.60
2022-11-18T07:04:32.342Z,75.50
2022-11-18T07:07:01.999Z,75.30
2022-11-18T07:09:31.703Z,74.40
2022-11-18T07:12:01.258Z,73.50
2022-11-18T07:14:30.932Z,73.30
2022-11-18T07:17:00.592Z,73.50
2022-11-18T07:19:35.458Z,73.80
2022-11-18T07:22:05.717Z,74.00
2022-11-18T07:24:35.626Z,74.20
2022-11-18T07:27:05.225Z,74.00
2022-11-18T07:29:35.083Z,73.90
2022-11-18T07:32:05.783Z,74.20
2022-11-18T07:34:35.398Z,74.30
2022-11-18T07:37:04.999Z,74.40
2022-11-18T07:39:34.593Z,74.80
2022-11-18T07:42:04.158Z,74.80
2022-11-18T07:44:33.733Z,74.80
2022-11-18T07:47:03.268Z,74.60
2022-11-18T07:49:32.884Z,74.80
2022-11-18T07:52:02.479Z,74.60
2022-11-18T07:54:31.988Z,74.60
2022-11-18T07:57:01.792Z,75.20
2022-11-18T07:59:31.349Z,74.30
2022-11-18T08:02:01.809Z,74.00
2022-11-18T08:04:31.490Z,74.00
2022-11-18T08:07:01.110Z,73.90
2022-11-18T08:09:30.815Z,74.00
2022-11-18T08:12:00.458Z,73.90
2022-11-18T08:14:30.522Z,74.00
2022-11-18T08:17:00.354Z,73.70
2022-11-18T08:19:29.948Z,73.50
2022-11-18T08:21:59.566Z,73.60
2022-11-18T08:24:29.355Z,73.40
2022-11-18T08:26:58.913Z,73.20
2022-11-18T08:29:30.760Z,73.20
2022-11-18T08:32:00.356Z,73.40
2022-11-18T08:34:30.005Z,73.70
2022-11-18T08:36:59.566Z,73.90
2022-11-18T08:39:29.204Z,74.00
2022-11-18T08:42:01.099Z,74.30
2022-11-18T08:44:30.737Z,74.60
2022-11-18T08:47:00.270Z,74.80
2022-11-18T08:49:32.550Z,74.90
2022-11-18T08:52:02.403Z,75.10
2022-11-18T08:54:33.278Z,75.20
2022-11-18T08:57:03.069Z,75.10
2022-11-18T08:59:32.776Z,75.00
2022-11-18T09:02:02.440Z,74.70
2022-11-18T09:04:32.056Z,74.60
2022-11-18T09:07:01.615Z,74.50
2022-11-18T09:09:31.265Z,74.40
2022-11-18T09:12:00.856Z,74.40
2022-11-18T09:15:12.364Z,74.50
2022-11-18T09:17:20.133Z,74.50
2022-11-18T09:19:49.797Z,74.70
2022-11-18T09:22:19.514Z,74.90
2022-11-18T09:24:49.067Z,75.00
2022-11-18T09:27:18.765Z,75.10
2022-11-18T09:29:49.508Z,75.30
2022-11-18T09:32:19.506Z,75.30
2022-11-18T09:34:49.410Z,75.50
2022-11-18T09:37:19.633Z,75.50
2022-11-18T09:39:49.617Z,75.60
2022-11-18T09:42:50.939Z,75.70
2022-11-18T09:45:26.819Z,75.60
2022-11-18T09:48:01.393Z,75.80
2022-11-18T09:53:23.830Z,75.70
2022-11-18T09:55:55.807Z,76.50
2022-11-18T09:58:37.056Z,75.70
2022-11-18T10:01:16.853Z,75.70
2022-11-18T10:03:46.913Z,75.60
2022-11-18T10:06:36.220Z,75.90
2022-11-18T10:09:29.292Z,75.70
2022-11-18T10:12:38.025Z,75.70
2022-11-18T10:15:37.738Z,75.80
2022-11-18T10:18:59.339Z,75.90
2022-11-18T10:22:06.288Z,75.90
2022-11-18T10:24:44.511Z,76.00
2022-11-18T10:27:16.794Z,76.10
2022-11-18T10:29:50.713Z,76.40
2022-11-18T10:32:21.029Z,76.60
2022-11-18T10:34:54.736Z,76.80
2022-11-18T10:40:29.250Z,77.20
2022-11-18T10:42:59.364Z,77.60
2022-11-18T10:45:32.971Z,78.00
2022-11-18T10:48:22.692Z,78.20
2022-11-18T10:50:55.893Z,78.70
2022-11-18T10:53:37.667Z,78.80
2022-11-18T10:56:11.164Z,79.20
2022-11-18T10:58:47.478Z,79.40
2022-11-18T11:01:26.040Z,79.70
2022-11-18T11:04:34.771Z,80.10
2022-11-18T11:07:18.168Z,80.40
2022-11-18T11:10:00.805Z,80.60
2022-11-18T11:12:35.280Z,81.60
2022-11-18T11:15:12.965Z,81.10
2022-11-18T11:18:12.531Z,81.40
2022-11-18T11:20:42.886Z,81.60
2022-11-18T11:23:18.972Z,81.90
2022-11-18T11:29:28.249Z,82.30
2022-11-18T11:32:27.378Z,82.50
2022-11-18T11:35:28.923Z,82.60
2022-11-18T11:38:23.367Z,83.00
2022-11-18T11:41:23.821Z,83.10
2022-11-18T11:44:29.873Z,83.50
2022-11-18T11:47:45.986Z,83.70
2022-11-18T11:51:03.855Z,83.70
2022-11-18T11:54:03.206Z,84.10
2022-11-18T11:57:01.256Z,84.30
2022-11-18T11:59:50.519Z,84.70
2022-11-18T12:02:47.023Z,84.60
2022-11-18T12:05:37.648Z,85.00
2022-11-18T12:08:26.814Z,85.10
2022-11-18T12:11:13.612Z,85.20
2022-11-18T12:14:07.734Z,85.50
2022-11-18T12:17:09.186Z,85.90
2022-11-18T12:19:41.633Z,86.00
2022-11-18T12:22:11.749Z,86.10
2022-11-18T12:24:45.714Z,86.40
2022-11-18T12:27:36.674Z,86.40
2022-11-18T12:30:19.440Z,86.60
2022-11-18T12:32:57.654Z,86.60
2022-11-18T12:35:32.994Z,86.90
2022-11-18T12:38:04.184Z,86.90
2022-11-18T12:40:52.747Z,87.00
2022-11-18T12:44:02.823Z,87.10
2022-11-18T12:46:52.707Z,87.20
2022-11-18T12:50:01.477Z,87.30
2022-11-18T12:52:49.857Z,87.40
2022-11-18T12:55:26.723Z,87.70
2022-11-18T12:57:56.365Z,87.50
2022-11-18T13:00:34.879Z,87.70
2022-11-18T13:03:05.141Z,87.90
2022-11-18T13:05:36.786Z,87.80
2022-11-18T13:08:17.470Z,88.00
2022-11-18T13:11:15.708Z,88.10
2022-11-18T13:13:46.026Z,88.20
2022-11-18T13:16:45.193Z,88.30
2022-11-18T13:19:27.379Z,88.50
2022-11-18T13:22:18.826Z,88.60
2022-11-18T13:24:54.225Z,88.70
2022-11-18T13:27:47.143Z,88.80
2022-11-18T13:30:19.177Z,89.10
2022-11-18T13:32:50.534Z,89.20
2022-11-18T13:35:28.893Z,89.30
2022-11-18T13:38:01.936Z,89.50
2022-11-18T13:41:06.401Z,89.50
2022-11-18T13:43:37.993Z,89.80
2022-11-18T13:46:15.923Z,89.90
2022-11-18T13:48:49.857Z,90.00
2022-11-18T13:51:20.720Z,90.10
2022-11-18T13:53:50.805Z,90.10
2022-11-18T13:56:35.300Z,90.00
2022-11-18T13:59:22.397Z,90.10
2022-11-18T14:02:01.996Z,90.20
2022-11-18T14:04:33.664Z,90.30
2022-11-18T14:07:31.103Z,90.30
2022-11-18T14:10:04.917Z,90.40
2022-11-18T14:12:37.561Z,90.40
2022-11-18T14:15:43.345Z,90.40
2022-11-18T14:18:33.959Z,90.60
2022-11-18T14:21:05.515Z,90.70
2022-11-18T14:23:38.245Z,90.70
2022-11-18T14:26:09.921Z,90.70
2022-11-18T14:28:40.845Z,90.80
2022-11-18T14:31:32.507Z,90.90
2022-11-18T14:34:28.708Z,90.90
2022-11-18T14:36:58.721Z,90.90
2022-11-18T14:39:30.848Z,90.90
2022-11-18T14:42:01.431Z,90.90
2022-11-18T14:44:32.256Z,91.00
2022-11-18T14:47:08.502Z,91.10
2022-11-18T14:49:38.856Z,91.10
2022-11-18T14:52:11.794Z,91.20
2022-11-18T14:54:41.437Z,91.30
2022-11-18T14:57:18.002Z,91.40
2022-11-18T14:59:47.799Z,91.40
2022-11-18T15:02:19.263Z,91.50
2022-11-18T15:04:50.148Z,91.60
2022-11-18T15:07:23.727Z,91.70
2022-11-18T15:09:53.738Z,91.70
2022-11-18T15:12:23.384Z,91.70
2022-11-18T15:14:53.048Z,91.70
2022-11-18T15:17:22.637Z,91.80
2022-11-18T15:19:52.176Z,91.80
2022-11-18T15:22:21.786Z,91.80
2022-11-18T15:24:51.425Z,91.80
2022-11-18T15:27:20.961Z,91.90
2022-11-18T15:29:54.308Z,91.90
2022-11-18T15:32:25.281Z,92.00
2022-11-18T15:34:55.259Z,92.00
2022-11-18T15:37:25.166Z,92.00
2022-11-18T15:39:55.131Z,92.00
2022-11-18T15:42:25.087Z,92.00
2022-11-18T15:44:54.972Z,92.10
2022-11-18T15:47:24.931Z,92.10
2022-11-18T15:49:54.755Z,92.20
2022-11-18T15:52:24.697Z,92.20
2022-11-18T15:54:54.643Z,92.20
2022-11-18T15:57:24.595Z,92.20
2022-11-18T15:59:54.505Z,92.40
2022-11-18T16:02:24.399Z,92.50
2022-11-18T16:04:54.295Z,92.50
2022-11-18T16:07:24.346Z,92.50
2022-11-18T16:10:13.898Z,92.50
2022-11-18T16:12:49.851Z,92.50
2022-11-18T16:15:39.889Z,92.50
2022-11-18T16:18:09.830Z,92.80
2022-11-18T16:20:40.109Z,92.60
2022-11-18T16:23:10.104Z,92.60
2022-11-18T16:25:45.208Z,92.80
2022-11-18T16:28:15.145Z,92.80
2022-11-18T16:31:11.186Z,93.00
2022-11-18T16:33:41.121Z,93.10
2022-11-18T16:36:11.174Z,93.30
2022-11-18T16:38:41.101Z,93.30
2022-11-18T16:41:31.338Z,93.70
2022-11-18T16:44:07.099Z,93.30
2022-11-18T16:46:39.965Z,93.30
2022-11-18T16:49:13.663Z,93.40
2022-11-18T16:51:45.946Z,93.50
2022-11-18T16:54:23.039Z,93.60
2022-11-18T16:56:54.819Z,93.50
2022-11-18T16:59:30.110Z,93.60
2022-11-18T17:02:01.508Z,93.60
2022-11-18T17:04:32.348Z,93.70
2022-11-18T17:07:02.483Z,93.70
2022-11-18T17:09:32.477Z,93.70
2022-11-18T17:12:02.402Z,93.70
2022-11-18T17:14:33.181Z,93.80
2022-11-18T17:17:03.131Z,93.90
2022-11-18T17:19:32.980Z,93.90
2022-11-18T17:22:02.890Z,93.90
2022-11-18T17:24:32.884Z,93.90
2022-11-18T17:27:02.783Z,93.90
2022-11-18T17:29:34.578Z,93.90
2022-11-18T17:32:05.467Z,93.90
2022-11-18T17:34:35.400Z,94.00
2022-11-18T17:37:07.162Z,94.00
2022-11-18T17:39:37.651Z,94.10
2022-11-18T17:42:16.784Z,94.10
2022-11-18T17:44:47.100Z,94.20
2022-11-18T17:47:17.168Z,94.10
2022-11-18T17:49:47.546Z,94.30
2022-11-18T17:52:17.630Z,94.30
2022-11-18T17:54:47.547Z,94.30
2022-11-18T17:57:17.529Z,94.30
2022-11-18T17:59:47.388Z,94.30
2022-11-18T18:02:17.357Z,94.30
2022-11-18T18:04:47.208Z,94.30
2022-11-18T18:07:17.213Z,94.30
2022-11-18T18:09:47.133Z,94.30
2022-11-18T18:12:36.739Z,94.40
2022-11-18T18:15:07.045Z,94.70
2022-11-18T18:17:36.985Z,94.40
2022-11-18T18:20:07.138Z,94.50
2022-11-18T18:22:37.292Z,94.50
2022-11-18T18:25:07.561Z,94.60
2022-11-18T18:27:37.480Z,94.60
2022-11-18T18:30:09.025Z,94.70
2022-11-18T18:32:39.332Z,94.70
2022-11-18T18:35:09.319Z,94.70
2022-11-18T18:37:39.197Z,94.70
2022-11-18T18:40:09.280Z,94.70
2022-11-18T18:42:38.794Z,95.00
2022-11-18T18:45:28.323Z,94.80
2022-11-18T18:47:57.965Z,94.80
2022-11-18T18:50:29.836Z,95.10
2022-11-18T18:52:59.666Z,94.80
2022-11-18T18:55:29.258Z,94.80
2022-11-18T18:57:58.840Z,94.80
2022-11-18T19:00:28.447Z,94.90
2022-11-18T19:02:58.050Z,94.90
2022-11-18T19:05:53.614Z,95.00
2022-11-18T19:08:17.229Z,95.00
2022-11-18T19:10:46.802Z,95.10
2022-11-18T19:13:16.341Z,95.00
2022-11-18T19:15:46.011Z,94.90
2022-11-18T19:18:15.791Z,94.90
2022-11-18T19:20:45.985Z,95.00
2022-11-18T19:23:15.680Z,95.00
2022-11-18T19:25:45.643Z,95.10
2022-11-18T19:28:15.281Z,95.10
2022-11-18T19:30:45.240Z,95.10
2022-11-18T19:33:15.981Z,95.20
2022-11-18T19:35:45.909Z,95.20
2022-11-18T19:38:15.838Z,95.20
2022-11-18T19:40:45.924Z,95.20
2022-11-18T19:43:15.808Z,95.20
2022-11-18T19:45:53.914Z,95.30
2022-11-18T19:48:24.016Z,95.40
2022-11-18T19:50:54.410Z,95.50
2022-11-18T19:53:43.978Z,95.50
2022-11-18T19:56:16.660Z,95.60
2022-11-18T19:58:48.223Z,95.60
2022-11-18T20:01:29.068Z,95.60
2022-11-18T20:04:01.530Z,95.70
2022-11-18T20:06:31.695Z,95.70
2022-11-18T20:09:01.566Z,95.70
2022-11-18T20:11:31.499Z,95.80
2022-11-18T20:14:01.390Z,95.80
2022-11-18T20:16:31.390Z,95.80
2022-11-18T20:19:09.320Z,95.80
2022-11-18T20:21:41.126Z,95.80
2022-11-18T20:24:12.673Z,95.90
2022-11-18T20:26:43.087Z,95.90
2022-11-18T20:29:13.430Z,95.90
2022-11-18T20:31:43.633Z,95.90
2022-11-18T20:34:17.961Z,95.90
2022-11-18T20:36:49.591Z,95.90
2022-11-18T20:39:19.867Z,95.90
2022-11-18T20:42:09.557Z,96.00
2022-11-18T20:44:39.440Z,96.00
2022-11-18T20:47:09.402Z,96.00
2022-11-18T20:49:39.388Z,96.00
2022-11-18T20:52:09.312Z,96.00
2022-11-18T20:54:39.266Z,96.00
2022-11-18T20:57:09.098Z,96.10
2022-11-18T20:59:40.004Z,96.10
2022-11-18T21:02:10.727Z,96.10
2022-11-18T21:04:40.640Z,96.40
2022-11-18T21:07:10.539Z,96.20
2022-11-18T21:09:40.486Z,96.50
2022-11-18T21:12:11.223Z,96.20
2022-11-18T21:14:41.328Z,96.20
2022-11-18T21:17:11.328Z,96.20
2022-11-18T21:19:45.809Z,96.30
2022-11-18T21:22:17.297Z,96.20
2022-11-18T21:24:47.249Z,96.30
2022-11-18T21:27:17.269Z,96.40
2022-11-18T21:29:51.551Z,96.30
2022-11-18T21:32:21.597Z,96.40
2022-11-18T21:34:51.479Z,96.40
2022-11-18T21:37:21.040Z,96.50
2022-11-18T21:39:50.609Z,96.50
2022-11-18T21:42:20.155Z,96.50
2022-11-18T21:44:50.925Z,96.50
2022-11-18T21:47:20.500Z,96.50
2022-11-18T21:49:50.032Z,96.50
2022-11-18T21:52:19.780Z,96.60
2022-11-18T21:54:49.340Z,96.50
2022-11-18T21:57:18.894Z,96.60
2022-11-18T21:59:48.461Z,96.60
2022-11-18T22:02:17.985Z,96.60
2022-11-18T22:04:57.649Z,96.60
2022-11-18T22:07:28.869Z,96.60
2022-11-18T22:09:58.582Z,96.60
2022-11-18T22:12:28.298Z,96.70
2022-11-18T22:14:57.896Z,96.70
2022-11-18T22:17:27.399Z,96.80
2022-11-18T22:19:56.919Z,97.10
2022-11-18T22:22:26.547Z,96.80
2022-11-18T22:24:56.193Z,96.80
2022-11-18T22:27:25.730Z,96.80
2022-11-18T22:29:55.261Z,96.80
2022-11-18T22:32:26.287Z,96.90
2022-11-18T22:34:56.208Z,96.90
2022-11-18T22:37:26.235Z,96.90
2022-11-18T22:39:56.147Z,96.90
2022-11-18T22:42:45.754Z,96.90
2022-11-18T22:45:16.564Z,96.90
2022-11-18T22:47:46.554Z,96.90
2022-11-18T22:50:17.520Z,96.90
2022-11-18T22:52:47.588Z,96.90
2022-11-18T22:55:17.588Z,96.90
2022-11-18T22:57:47.511Z,96.90
2022-11-18T23:00:18.478Z,97.00
2022-11-18T23:02:49.407Z,96.90
2022-11-18T23:05:19.343Z,96.90
2022-11-18T23:07:49.368Z,97.00
2022-11-18T23:10:19.332Z,97.00
2022-11-18T23:13:08.977Z,97.00
2022-11-18T23:15:39.087Z,97.00
2022-11-18T23:18:11.618Z,97.10
2022-11-18T23:20:42.154Z,97.10
2022-11-18T23:23:12.025Z,97.10
2022-11-18T23:25:42.104Z,97.10
2022-11-18T23:28:12.097Z,97.10
2022-11-18T23:30:42.033Z,97.20
2022-11-18T23:33:12.774Z,97.20
2022-11-18T23:35:42.652Z,97.20
2022-11-18T23:38:13.098Z,97.30
2022-11-18T23:40:43.000Z,97.30
2022-11-18T23:43:12.860Z,97.70
2022-11-18T23:45:44.687Z,97.50
2022-11-18T23:48:14.639Z,97.50
2022-11-18T23:50:44.823Z,97.60
2022-11-18T23:53:14.786Z,97.80
2022-11-18T23:55:44.759Z,97.90
2022-11-18T23:58:14.675Z,97.90
